NEODyS-2

Near Earth Objects - Dynamic Site
NEODyS ∴ Observatories ∴ Site 691 ∴ Obs & residuals
Contact »
691  ▹ 
OBSERVATIONS AND RESIDUALS

691-Steward Observatory, Kitt Peak-Spacewatch

Detections | Residuals | Detections & Residuals

[1-200] [201-400] [401-600] [601-800] [801-1000] [1001-1200] [1201-1400] [1401-1600] [1601-1800] [1801-2000] [2001-2200] [2201-2400] [2401-2600] [2601-2800] [2801-3000] [3001-3200] [3201-3400] [3401-3600] [3601-3800] [3801-4000] [4001-4200] [4201-4400] [4401-4600] [4601-4800] [4801-5000] [5001-5200] [5201-5400] [5401-5600] [5601-5800] [5801-6000] [6001-6200] [6201-6400] [6401-6600] [6601-6800] [6801-7000] [7001-7200] [7201-7400] [7401-7600] [7601-7800] [7801-8000] [8001-8200] [8201-8400] [8401-8600] [8601-8800] [8801-9000] [9001-9200] [9201-9400] [9401-9600] [9601-9800] [9801-10000] [10001-10200] [10201-10400] [10401-10600] [10601-10800] [10801-11000] [11001-11200] [11201-11400] [11401-11600] [11601-11800] [11801-12000] [12001-12200] [12201-12400] [12401-12600] [12601-12800] [12801-13000] [13001-13200] [13201-13400] [13401-13600] [13601-13800] [13801-14000] [14001-14200] [14201-14400] [14401-14600] [14601-14800] [14801-15000] [15001-15200] [15201-15400] [15401-15600] [15601-15800] [15801-16000] [16001-16200] [16201-16400] [16401-16600] [16601-16800] [16801-17000] [17001-17200] [17201-17400] [17401-17600] [17601-17800] [17801-18000] [18001-18200] [18201-18400] [18401-18600] [18601-18800] [18801-19000] [19001-19200] [19201-19400] [19401-19600] [19601-19800] [19801-20000] [20001-20200] [20201-20400] [20401-20600] [20601-20800] [20801-21000] [21001-21200] [21201-21400] [21401-21600] [21601-21800] [21801-22000] [22001-22200] [22201-22400] [22401-22600] [22601-22800] [22801-23000] [23001-23200] [23201-23400] [23401-23600] [23601-23800] [23801-24000] [24001-24200] [24201-24400] [24401-24600] [24601-24800] [24801-25000] [25001-25200] [25201-25400] [25401-25600] [25601-25800] [25801-26000] [26001-26200] [26201-26400] [26401-26600] [26601-26800] [26801-27000] [27001-27200] [27201-27400] [27401-27600] [27601-27800] [27801-28000] [28001-28200] [28201-28400] [28401-28600] [28601-28800] [28801-29000] [29001-29200] [29201-29400] [29401-29600] [29601-29800] [29801-30000] [30001-30200] [30201-30400] [30401-30600] [30601-30800] [30801-31000] [31001-31200] [31201-31400] [31401-31600] [31601-31800] [31801-32000] [32001-32200] [32201-32400] [32401-32600] [32601-32800] [32801-33000] [33001-33200] [33201-33400] [33401-33600] [33601-33800] [33801-34000] [34001-34200] [34201-34400] [34401-34600] [34601-34800] [34801-35000] [35001-35200] [35201-35400] [35401-35600] [35601-35800] [35801-36000] [36001-36200] [36201-36400] [36401-36600] [36601-36800] [36801-37000] [37001-37200] [37201-37400] [37401-37600] [37601-37800] [37801-38000] [38001-38200] [38201-38400] [38401-38600] [38601-38800] [38801-39000] [39001-39200] [39201-39400] [39401-39600] [39601-39800] [39801-40000] [40001-40200] [40201-40400] [40401-40600] [40601-40800] [40801-41000] [41001-41200] [41201-41400] [41401-41600] [41601-41800] [41801-42000] [42001-42200] [42201-42400] [42401-42600] [42601-42800] [42801-43000] [43001-43200] [43201-43400] [43401-43600] [43601-43800] [43801-44000] [44001-44200] [44201-44400] [44401-44600] [44601-44800] [44801-45000] [45001-45200] [45201-45400] [45401-45600] [45601-45800] [45801-46000] [46001-46200] [46201-46400] [46401-46600] [46601-46800] [46801-47000] [47001-47200] [47201-47400] [47401-47600] [47601-47800] [47801-48000] [48001-48200] [48201-48400] [48401-48600] [48601-48800] [48801-49000] [49001-49200] [49201-49400] [49401-49600] [49601-49800] [49801-50000] [50001-50200] [50201-50388]

Designation T Tech N Date Right Ascension Declination Apparent Magnitude Star Catalog Site code χ Used A Used M
yr-mo-day precision hr:min:sec precision rms F bias residual deg min sec precision rms F bias residual mag/col rms residual
2002VU94 O C 1999-12-09.13690 1.000E-05 03:46:50.780 1.500E-01 0.600 F -0.167 0.167 +16° 11' 35.10" 1.000E-01 0.600 F -0.444 1.154 21.0 V 0.70 0.82 b 691 1.94 Yes Yes
2002VU94 O C 1999-12-09.15933 1.000E-05 03:46:49.380 1.500E-01 0.600 F -0.167 -0.061 +16° 11' 29.40" 1.000E-01 0.600 F -0.444 0.984 20.4 V 0.70 0.22 b 691 1.64 Yes Yes
2002VU94 O C 1999-12-09.18173 1.000E-05 03:46:48.020 1.500E-01 0.600 F -0.167 0.290 +16° 11' 24.60" 1.000E-01 0.600 F -0.444 1.720 20.7 V 0.70 0.52 b 691 2.91 Yes Yes
1999VX15 O C H 1999-12-12.08647 1.000E-05 01:07:23.420 1.500E-01 0.600 F 0.149 -0.424 +05° 51' 08.70" 1.000E-01 0.600 F -0.048 0.401 21.5 V 0.70 -0.07 b 691 0.99 Yes Yes
1999VX15 O C H 1999-12-12.10788 1.000E-05 01:07:23.570 1.500E-01 0.600 F 0.149 0.302 +05° 50' 58.30" 1.000E-01 0.600 F -0.048 0.041 22.0 V 0.70 0.43 b 691 0.52 Yes Yes
1999VX15 O C H 1999-12-12.12854 1.000E-05 01:07:23.750 1.500E-01 0.600 F 0.149 1.530 +05° 50' 48.30" 1.000E-01 0.600 F -0.048 -0.268 21.2 V 0.70 -0.37 b 691 2.65 Yes Yes
1999WK11 O C H 1999-12-13.26392 1.000E-05 03:33:53.510 1.500E-01 0.600 F 0.033 -0.005 +17° 36' 10.90" 1.000E-01 0.600 F 0.120 0.061 20.7 V 0.70 -0.23 b 691 0.10 Yes Yes
1999WK11 O C H 1999-12-13.29068 1.000E-05 03:33:51.870 1.500E-01 0.600 F 0.033 -0.051 +17° 36' 11.20" 1.000E-01 0.600 F 0.120 0.714 21.4 V 0.70 0.47 b 691 1.20 Yes Yes
1999WK11 O C H 1999-12-13.32211 1.000E-05 03:33:49.960 1.500E-01 0.600 F 0.033 0.035 +17° 36' 10.60" 1.000E-01 0.600 F 0.120 0.576 21.5 V 0.70 0.57 b 691 0.97 Yes Yes
1997XF11 O C H 1999-12-13.52184 1.000E-05 10:02:43.180 1.500E-01 0.600 F -0.092 0.053 +06° 01' 57.90" 1.000E-01 0.600 F 0.043 0.192 20.6 V 0.70 -0.02 b 691 0.33 Yes Yes
1997XF11 O C H 1999-12-13.53877 1.000E-05 10:02:43.340 1.500E-01 0.600 F -0.092 2.203 +06° 01' 55.60" 1.000E-01 0.600 F 0.043 1.060 b 691 4.07 No No
Ogmios O C H 1999-12-16.14410 1.000E-05 02:29:23.530 1.500E-01 0.600 F 0.143 1.635 +16° 02' 30.00" 1.000E-01 0.600 F -0.063 0.274 19.8 V 0.70 1.44 b 691 2.80 Yes Yes
Ogmios O C H 1999-12-16.16687 1.000E-05 02:29:26.880 1.500E-01 0.600 F 0.143 -0.464 +16° 01' 23.70" 1.000E-01 0.600 F -0.063 1.693 19.1 V 0.70 0.74 b 691 2.94 Yes Yes
Ogmios O C H 1999-12-16.18871 1.000E-05 02:29:30.220 1.500E-01 0.600 F 0.143 -0.598 +16° 00' 17.30" 1.000E-01 0.600 F -0.063 0.316 18.9 V 0.70 0.54 b 691 1.14 Yes Yes
2002VU94 O C 1999-12-16.21458 1.000E-05 03:40:08.360 1.500E-01 0.600 F -0.208 0.943 +15° 43' 52.60" 1.000E-01 0.600 F -0.262 0.179 19.2 V 0.70 -1.15 b 691 1.60 Yes Yes
2002VU94 O C 1999-12-16.23629 1.000E-05 03:40:07.110 1.500E-01 0.600 F -0.208 -0.129 +15° 43' 48.20" 1.000E-01 0.600 F -0.262 0.510 20.5 V 0.70 0.15 b 691 0.88 Yes Yes
2002VU94 O C 1999-12-16.25799 1.000E-05 03:40:05.940 1.500E-01 0.600 F -0.208 -0.066 +15° 43' 43.30" 1.000E-01 0.600 F -0.262 0.352 20.5 V 0.70 0.15 b 691 0.60 Yes Yes
Ogmios O C H 1999-12-17.06489 1.000E-05 02:31:53.950 1.500E-01 0.600 F 0.270 0.663 +15° 17' 32.00" 1.000E-01 0.600 F 0.019 -0.002 19.4 V 0.70 0.99 b 691 1.12 Yes Yes
Ogmios O C H 1999-12-17.08764 1.000E-05 02:31:57.480 1.500E-01 0.600 F 0.270 1.257 +15° 16' 27.00" 1.000E-01 0.600 F 0.019 -0.147 19.4 V 0.70 0.99 b 691 2.14 Yes Yes
Ogmios O C H 1999-12-17.10962 1.000E-05 02:32:00.750 1.500E-01 0.600 F 0.270 0.058 +15° 15' 24.50" 1.000E-01 0.600 F 0.019 0.059 19.3 V 0.70 0.89 b 691 0.14 Yes Yes
1998XE12 O C H 1999-12-18.31836 1.000E-05 07:51:34.440 1.500E-01 0.600 F 0.288 -0.351 +23° 01' 50.80" 1.000E-01 0.600 F -0.260 0.677 20.3 V 0.70 0.52 b 691 1.28 Yes Yes
1998XE12 O C H 1999-12-18.34074 1.000E-05 07:51:29.540 1.500E-01 0.600 F 0.288 -0.091 +23° 01' 50.30" 1.000E-01 0.600 F -0.260 -1.322 20.0 V 0.70 0.23 b 691 2.21 Yes Yes
1998XE12 O C H 1999-12-18.36320 1.000E-05 07:51:24.540 1.500E-01 0.600 F 0.288 -0.820 +23° 01' 52.90" 1.000E-01 0.600 F -0.260 -0.125 19.8 V 0.70 0.03 b 691 1.39 Yes Yes
2000AG6 O C t 2000-01-06.15973 1.000E-05 03:49:09.750 1.500E-01 0.600 F -0.005 0.858 +18° 22' 29.20" 1.000E-01 0.600 F -0.235 1.827 b 691 3.25 No No
2000AG6 O C t 2000-01-06.18163 1.000E-05 03:48:20.430 1.500E-01 0.600 F -0.005 -0.224 +18° 16' 19.60" 1.000E-01 0.600 F -0.235 0.904 b 691 1.60 Yes No
2000AA6 O C t 2000-01-06.29752 1.000E-05 06:01:06.500 1.500E-01 0.600 F 0.462 1.383 +21° 50' 48.80" 1.000E-01 0.600 F 0.366 1.766 b 691 3.68 No No
2000AA6 O C t 2000-01-06.32025 1.000E-05 06:00:50.630 1.500E-01 0.600 F 0.462 0.593 +21° 50' 08.10" 1.000E-01 0.600 F 0.366 2.157 b 691 3.68 No No
1996AS1 O C H 2000-01-08.13844 1.000E-05 02:18:13.850 1.500E-01 0.600 F 0.578 0.486 +30° 14' 45.50" 1.000E-01 0.600 F -0.059 -0.662 21.8 V 0.70 0.05 b 691 1.38 Yes Yes
1996AS1 O C H 2000-01-08.16707 1.000E-05 02:18:15.330 1.500E-01 0.600 F 0.578 -0.012 +30° 14' 33.00" 1.000E-01 0.600 F -0.059 1.340 21.5 V 0.70 -0.25 b 691 2.24 Yes Yes
1996AS1 O C H 2000-01-08.19494 1.000E-05 02:18:16.850 1.500E-01 0.600 F 0.578 0.455 +30° 14' 18.50" 1.000E-01 0.600 F -0.059 1.021 b 691 1.88 Yes No
1999VP11 O C H 2000-01-09.06984 1.000E-05 02:54:55.930 1.500E-01 0.600 F -0.608 0.243 -04° 51' 52.60" 1.000E-01 0.600 F -0.034 0.796 20.8 V 0.70 -0.38 b 691 1.39 Yes Yes
1999VP11 O C H 2000-01-09.08294 1.000E-05 02:54:56.040 1.500E-01 0.600 F -0.608 -0.605 -04° 51' 45.00" 1.000E-01 0.600 F -0.034 0.688 b 691 1.53 Yes No
1999VP11 O C H 2000-01-09.09081 1.000E-05 02:54:56.260 1.500E-01 0.600 F -0.608 1.190 -04° 51' 40.60" 1.000E-01 0.600 F -0.034 0.454 20.8 V 0.70 -0.38 b 691 2.13 Yes Yes
2000AG205 O C 2000-01-09.10288 1.000E-05 03:33:55.990 1.500E-01 0.600 F 0.320 -0.169 +19° 59' 02.10" 1.000E-01 0.600 F -0.298 0.022 20.4 V 0.70 -0.18 b 691 0.26 Yes Yes
1996AS1 O C H 2000-01-09.12012 1.000E-05 02:19:08.990 1.500E-01 0.600 F 0.578 -0.403 +30° 06' 41.50" 1.000E-01 0.600 F -0.059 0.470 b 691 1.04 Yes No
2000AG205 O C 2000-01-09.13198 1.000E-05 03:33:55.420 1.500E-01 0.600 F 0.320 0.266 +19° 58' 08.00" 1.000E-01 0.600 F -0.298 -0.192 b 691 0.58 Yes No
1996AS1 O C H 2000-01-09.14810 1.000E-05 02:19:10.600 1.500E-01 0.600 F 0.578 0.723 +30° 06' 28.60" 1.000E-01 0.600 F -0.059 1.249 b 691 2.43 Yes No
2000AG205 O C 2000-01-09.15990 1.000E-05 03:33:54.820 1.500E-01 0.600 F 0.320 -0.043 +19° 57' 16.20" 1.000E-01 0.600 F -0.298 -0.167 20.5 V 0.70 -0.08 b 691 0.28 Yes Yes
1996AS1 O C H 2000-01-09.17617 1.000E-05 02:19:12.100 1.500E-01 0.600 F 0.578 0.301 +30° 06' 14.40" 1.000E-01 0.600 F -0.059 0.838 21.9 V 0.70 0.12 b 691 1.49 Yes Yes
1999TD5 O C 2000-01-09.25396 1.000E-05 06:51:03.840 1.500E-01 0.600 F 0.355 -0.001 +23° 14' 49.60" 1.000E-01 0.600 F -0.167 0.062 17.9 V 0.70 -0.14 b 691 0.11 Yes Yes
1999TD5 O C 2000-01-09.27656 1.000E-05 06:51:03.850 1.500E-01 0.600 F 0.355 0.931 +23° 15' 05.50" 1.000E-01 0.600 F -0.167 0.251 17.7 V 0.70 -0.34 b 691 1.66 Yes Yes
1999TD5 O C 2000-01-09.29901 1.000E-05 06:51:03.710 1.500E-01 0.600 F 0.355 -0.168 +23° 15' 20.70" 1.000E-01 0.600 F -0.167 0.018 17.8 V 0.70 -0.24 b 691 0.29 Yes Yes
2000AG205 O C I 2000-01-10.15714 1.000E-05 03:33:41.990 1.500E-01 0.600 F -0.085 1.540 +19° 26' 29.50" 1.000E-01 0.600 F 0.063 -1.505 19.8 V 0.70 -0.79 b 691 3.55 No Yes
2000AG205 O C 2000-01-10.17946 1.000E-05 03:33:41.520 1.500E-01 0.600 F -0.085 0.111 +19° 25' 49.00" 1.000E-01 0.600 F 0.063 -0.819 21.3 V 0.70 0.71 b 691 1.39 Yes Yes
2000AG205 O C 2000-01-10.20174 1.000E-05 03:33:41.190 1.500E-01 0.600 F -0.085 0.586 +19° 25' 08.30" 1.000E-01 0.600 F 0.063 -0.332 20.9 V 0.70 0.31 b 691 1.17 Yes Yes
2000AG205 O C H 2000-01-12.16505 1.000E-05 03:33:28.030 1.500E-01 0.735 F -0.085 0.071 +18° 25' 22.60" 1.000E-01 0.735 F 0.063 0.050 20.8 V 0.70 0.18 b 691 0.14 Yes Yes
2000AG205 O C 2000-01-12.16505 1.000E-05 03:33:28.020 1.500E-01 0.735 F -0.090 -0.067 +18° 25' 22.70" 1.000E-01 0.735 F 0.090 0.123 20.9 V 0.70 0.28 a 691 0.19 Yes Yes
2000AG205 O C H 2000-01-12.17099 1.000E-05 03:33:28.000 1.500E-01 0.735 F -0.085 0.354 +18° 25' 12.20" 1.000E-01 0.735 F 0.063 0.418 21.7 V 0.70 1.08 b 691 0.77 Yes Yes
2000AG205 O C 2000-01-12.17100 1.000E-05 03:33:27.970 1.500E-01 0.735 F -0.090 -0.067 +18° 25' 11.60" 1.000E-01 0.735 F 0.090 -0.191 20.9 V 0.70 0.28 a 691 0.27 Yes Yes
2000AG205 O C H 2000-01-12.17713 1.000E-05 03:33:27.950 1.500E-01 0.735 F -0.085 0.372 +18° 25' 01.60" 1.000E-01 0.735 F 0.063 0.953 20.9 V 0.70 0.28 b 691 1.42 Yes Yes
2000AG205 O C 2000-01-12.17715 1.000E-05 03:33:27.910 1.500E-01 0.735 F -0.090 -0.190 +18° 25' 00.80" 1.000E-01 0.735 F 0.090 0.163 21.4 V 0.70 0.78 a 691 0.33 Yes Yes
2000AG205 O C H 2000-01-14.23475 1.000E-05 03:33:30.300 1.500E-01 0.600 F 0.033 -0.725 +17° 23' 35.00" 1.000E-01 0.600 F 0.120 0.058 20.8 V 0.70 0.15 b 691 1.21 Yes Yes
2000AG205 O C H 2000-01-14.24066 1.000E-05 03:33:30.380 1.500E-01 0.600 F 0.033 0.355 +17° 23' 25.00" 1.000E-01 0.600 F 0.120 0.607 20.2 V 0.70 -0.45 b 691 1.20 Yes Yes
2000AG205 O C H 2000-01-14.24632 1.000E-05 03:33:30.340 1.500E-01 0.600 F 0.033 -0.292 +17° 23' 15.40" 1.000E-01 0.600 F 0.120 1.112 21.1 V 0.70 0.45 b 691 1.94 Yes Yes
2000AG205 O C 2000-01-26.16629 1.000E-05 03:39:01.790 1.500E-01 0.600 F 0.107 0.230 +11° 56' 05.40" 1.000E-01 0.600 F 0.046 -0.242 21.0 V 0.70 0.21 b 691 0.56 Yes Yes
2000AG205 O C 2000-01-26.17459 1.000E-05 03:39:02.160 1.500E-01 0.600 F 0.107 0.311 +11° 55' 52.50" 1.000E-01 0.600 F 0.046 -0.501 20.7 V 0.70 -0.09 b 691 0.99 Yes Yes
2000AG205 O C 2000-01-26.18221 1.000E-05 03:39:02.490 1.500E-01 0.600 F 0.107 0.229 +11° 55' 41.00" 1.000E-01 0.600 F 0.046 -0.390 20.8 V 0.70 0.01 b 691 0.76 Yes Yes
2000BF19 O C 2000-01-28.30549 1.000E-05 08:38:34.610 1.500E-01 0.600 F 0.177 0.531 +20° 04' 20.80" 1.000E-01 0.600 F -0.396 0.006 20.6 V 0.70 0.16 b 691 0.89 Yes Yes
2000BF19 O C 2000-01-28.32778 1.000E-05 08:38:31.920 1.500E-01 0.600 F 0.177 1.029 +20° 04' 25.30" 1.000E-01 0.600 F -0.396 0.534 20.6 V 0.70 0.16 b 691 1.94 Yes Yes
2000BF19 O C 2000-01-28.35006 1.000E-05 08:38:29.190 1.500E-01 0.600 F 0.177 0.943 +20° 04' 29.20" 1.000E-01 0.600 F -0.396 0.519 20.6 V 0.70 0.16 b 691 1.80 Yes Yes
2000BG19 O C 2000-01-28.50301 1.000E-05 11:03:32.930 1.500E-01 0.600 F 0.080 -0.073 +04° 28' 05.90" 1.000E-01 0.600 F 0.120 -0.467 19.3 V 0.70 -0.42 b 691 0.79 Yes Yes
2000BG19 O C 2000-01-28.51907 1.000E-05 11:03:33.460 1.500E-01 0.600 F 0.080 0.448 +04° 28' 14.50" 1.000E-01 0.600 F 0.120 -0.235 19.4 V 0.70 -0.32 b 691 0.85 Yes Yes
2000BG19 O C 2000-01-28.53514 1.000E-05 11:03:33.950 1.500E-01 0.600 F 0.080 0.317 +04° 28' 23.00" 1.000E-01 0.600 F 0.120 -0.112 19.3 V 0.70 -0.42 b 691 0.56 Yes Yes
2000BF19 O C 2000-01-29.34649 1.000E-05 08:36:30.340 1.500E-01 0.600 F 0.177 -0.052 +20° 07' 22.80" 1.000E-01 0.600 F -0.396 -0.344 20.7 V 0.70 0.22 b 691 0.58 Yes Yes
2000BF19 O C 2000-01-29.35423 1.000E-05 08:36:29.410 1.500E-01 0.600 F 0.177 0.255 +20° 07' 24.50" 1.000E-01 0.600 F -0.396 0.054 20.9 V 0.70 0.42 b 691 0.44 Yes Yes
2000BF19 O C 2000-01-29.36575 1.000E-05 08:36:27.990 1.500E-01 0.600 F 0.177 0.198 +20° 07' 26.10" 1.000E-01 0.600 F -0.396 -0.273 b 691 0.57 Yes No
2000BG19 O C 2000-01-29.45633 1.000E-05 11:04:04.960 1.500E-01 0.600 F 0.080 0.200 +04° 36' 39.50" 1.000E-01 0.600 F 0.120 -0.306 b 691 0.61 Yes No
2000BG19 O C 2000-01-29.46221 1.000E-05 11:04:05.120 1.500E-01 0.600 F 0.080 0.034 +04° 36' 42.50" 1.000E-01 0.600 F 0.120 -0.556 b 691 0.93 Yes No
2000BG19 O C 2000-01-29.46773 1.000E-05 11:04:05.270 1.500E-01 0.600 F 0.080 -0.127 +04° 36' 45.90" 1.000E-01 0.600 F 0.120 -0.207 b 691 0.41 Yes No
2000AG205 O C 2000-01-30.08231 1.000E-05 03:42:39.030 1.500E-01 0.600 F 0.242 -0.702 +10° 19' 46.00" 1.000E-01 0.600 F -0.042 -0.733 b 691 1.69 Yes No
2000AG205 O C 2000-01-30.08965 1.000E-05 03:42:39.500 1.500E-01 0.600 F 0.242 0.109 +10° 19' 36.30" 1.000E-01 0.600 F -0.042 0.081 b 691 0.25 Yes No
2000AG205 O C 2000-01-30.09713 1.000E-05 03:42:39.940 1.500E-01 0.600 F 0.242 0.361 +10° 19' 24.80" 1.000E-01 0.600 F -0.042 -0.701 20.4 V 0.70 -0.44 b 691 1.32 Yes Yes
2000BF19 O C 2000-01-30.29283 1.000E-05 08:34:37.110 1.500E-01 0.600 F 0.133 0.222 +20° 10' 03.40" 1.000E-01 0.600 F 0.236 -0.607 20.8 V 0.70 0.28 b 691 1.08 Yes Yes
2000BF19 O C 2000-01-30.30039 1.000E-05 08:34:36.170 1.500E-01 0.600 F 0.133 0.144 +20° 10' 04.60" 1.000E-01 0.600 F 0.236 -0.675 20.8 V 0.70 0.28 b 691 1.16 Yes Yes
2000BF19 O C 2000-01-30.30816 1.000E-05 08:34:35.180 1.500E-01 0.600 F 0.133 -0.271 +20° 10' 05.90" 1.000E-01 0.600 F 0.236 -0.671 20.8 V 0.70 0.28 b 691 1.21 Yes Yes
2000BO28 O C 2000-01-30.32777 1.000E-05 09:46:02.290 1.500E-01 0.600 F 0.333 -0.530 +14° 42' 10.80" 1.000E-01 0.600 F -0.019 0.407 21.0 V 0.70 0.06 b 691 1.13 Yes Yes
2000BO19 O C t 2000-01-30.33829 1.000E-05 09:30:22.960 1.500E-01 0.600 F -0.020 -0.006 +14° 32' 08.40" 1.000E-01 0.600 F 0.374 -0.211 19.6 V 0.70 0.75 b 691 0.43 Yes Yes
2000BO28 O C 2000-01-30.34907 1.000E-05 09:45:59.960 1.500E-01 0.600 F 0.137 0.021 +14° 42' 15.70" 1.000E-01 0.600 F -0.326 0.382 21.2 V 0.70 0.26 b 691 0.64 Yes Yes
2000BO19 O C t 2000-01-30.36013 1.000E-05 09:30:11.580 1.500E-01 0.600 F -0.020 -0.090 +14° 25' 45.90" 1.000E-01 0.600 F 0.374 -0.370 19.7 V 0.70 0.86 b 691 0.78 Yes Yes
2000BO28 O C 2000-01-30.38292 1.000E-05 09:45:56.240 1.500E-01 0.600 F 0.137 0.410 +14° 42' 24.30" 1.000E-01 0.600 F -0.326 0.754 20.8 V 0.70 -0.13 b 691 1.44 Yes Yes
2000BO19 O C t 2000-01-30.43125 1.000E-05 09:29:34.390 1.500E-01 0.600 F 0.000 -0.085 +14° 04' 41.10" 1.000E-01 0.600 F -0.799 0.674 19.8 V 0.70 0.99 b 691 1.38 Yes Yes
2000BG19 O C 2000-01-30.50967 1.000E-05 11:04:38.620 1.500E-01 0.600 F 0.193 0.010 +04° 46' 40.80" 1.000E-01 0.600 F -0.086 -0.172 19.2 V 0.70 -0.41 b 691 0.29 Yes Yes
2000BG19 O C 2000-01-30.51352 1.000E-05 11:04:38.720 1.500E-01 0.600 F 0.193 -0.122 +04° 46' 43.10" 1.000E-01 0.600 F -0.086 -0.126 19.2 V 0.70 -0.41 b 691 0.29 Yes Yes
2000BG19 O C 2000-01-30.51740 1.000E-05 11:04:38.850 1.500E-01 0.600 F 0.193 0.179 +04° 46' 45.20" 1.000E-01 0.600 F -0.086 -0.299 19.2 V 0.70 -0.41 b 691 0.58 Yes Yes
2000BF19 O C H 2000-01-31.18126 1.000E-05 08:32:50.530 1.500E-01 0.600 F 0.281 -0.326 +20° 12' 28.80" 1.000E-01 0.600 F 0.060 0.620 21.1 V 0.70 0.54 b 691 1.17 Yes Yes
2000BF19 O C H 2000-01-31.20032 1.000E-05 08:32:48.310 1.500E-01 0.600 F 0.281 1.457 +20° 12' 32.60" 1.000E-01 0.600 F 0.060 1.150 21.4 V 0.70 0.84 b 691 3.11 Yes Yes
2000BF19 O C H 2000-01-31.20801 1.000E-05 08:32:47.360 1.500E-01 0.600 F 0.281 1.433 +20° 12' 32.40" 1.000E-01 0.600 F 0.060 -0.360 21.1 V 0.70 0.54 b 691 2.48 Yes Yes
2000BO19 O C t 2000-01-31.44971 1.000E-05 09:20:35.010 1.500E-01 0.600 F 0.197 1.997 +08° 16' 03.00" 1.000E-01 0.600 F 0.128 4.851 b 691 7.20 No No
2000BG19 O C 2000-01-31.48140 1.000E-05 11:05:08.700 1.500E-01 0.600 F 0.194 0.239 +04° 56' 28.20" 1.000E-01 0.600 F -0.086 -0.378 19.9 V 0.70 0.34 b 691 0.75 Yes Yes
2000BG19 O C 2000-01-31.48885 1.000E-05 11:05:08.870 1.500E-01 0.600 F 0.194 -0.188 +04° 56' 32.60" 1.000E-01 0.600 F -0.086 -0.588 19.9 V 0.70 0.34 b 691 1.03 Yes Yes
2000BG19 O C 2000-01-31.49719 1.000E-05 11:05:09.090 1.500E-01 0.600 F 0.194 -0.233 +04° 56' 38.40" 1.000E-01 0.600 F -0.086 0.050 21.1 V 0.70 1.54 b 691 0.40 Yes Yes
2000AG205 O C B 2000-02-01.10083 1.000E-05 03:44:49.970 1.500E-01 0.600 F 0.317 -1.039 +09° 32' 13.80" 1.000E-01 0.600 F 0.267 0.084 b 691 1.75 Yes No
2000AG205 O C B 2000-02-01.10485 1.000E-05 03:44:50.380 1.500E-01 0.600 F 0.317 1.287 +09° 32' 10.30" 1.000E-01 0.600 F 0.267 2.184 21.0 V 0.70 0.14 b 691 4.19 No Yes
2000AG205 O C B 2000-02-01.10878 1.000E-05 03:44:50.480 1.500E-01 0.600 F 0.317 -0.890 +09° 32' 03.20" 1.000E-01 0.600 F 0.267 0.560 21.4 V 0.70 0.54 b 691 1.78 Yes Yes
2000BF19 O C 2000-02-01.21949 1.000E-05 08:30:45.210 1.500E-01 0.600 F 0.281 0.179 +20° 15' 11.00" 1.000E-01 0.600 F 0.060 -0.299 21.4 V 0.70 0.80 b 691 0.58 Yes Yes
2000BF19 O C 2000-02-01.22540 1.000E-05 08:30:44.450 1.500E-01 0.600 F 0.281 -0.217 +20° 15' 11.90" 1.000E-01 0.600 F 0.060 -0.352 21.2 V 0.70 0.60 b 691 0.69 Yes Yes
2000BF19 O C 2000-02-01.23135 1.000E-05 08:30:43.780 1.500E-01 0.600 F 0.281 0.729 +20° 15' 13.40" 1.000E-01 0.600 F 0.060 0.193 21.6 V 0.70 1.00 b 691 1.26 Yes Yes
2000BO19 O C t 2000-02-01.24803 1.000E-05 09:12:04.790 1.500E-01 0.600 F -0.296 6.506 +02° 26' 59.80" 1.000E-01 0.600 F -0.540 8.589 b 691 12.74 No No
2000BO28 O C 2000-02-01.26868 1.000E-05 09:42:28.450 1.500E-01 0.600 F 0.073 0.076 +14° 50' 17.70" 1.000E-01 0.600 F -0.008 -0.168 21.5 V 0.70 0.71 b 691 0.31 Yes Yes
2000BO28 O C 2000-02-01.27276 1.000E-05 09:42:28.010 1.500E-01 0.600 F 0.073 0.704 +14° 50' 18.30" 1.000E-01 0.600 F -0.008 -0.657 20.9 V 0.70 0.11 b 691 1.62 Yes Yes
2000BO28 O C 2000-02-01.27679 1.000E-05 09:42:27.470 1.500E-01 0.600 F 0.073 -0.200 +14° 50' 19.70" 1.000E-01 0.600 F -0.008 -0.332 20.6 V 0.70 -0.19 b 691 0.65 Yes Yes
2000BG19 O C 2000-02-01.29170 1.000E-05 11:05:33.450 1.500E-01 0.600 F 0.195 -0.014 +05° 05' 02.20" 1.000E-01 0.600 F -0.104 -0.655 19.1 V 0.70 -0.41 a 691 1.10 Yes Yes
2000BG19 O C 2000-02-01.29582 1.000E-05 11:05:33.550 1.500E-01 0.600 F 0.195 -0.129 +05° 05' 05.60" 1.000E-01 0.600 F -0.104 0.057 19.4 V 0.70 -0.11 a 691 0.24 Yes Yes
2000BG19 O C 2000-02-01.29983 1.000E-05 11:05:33.660 1.500E-01 0.600 F 0.195 -0.048 +05° 05' 08.00" 1.000E-01 0.600 F -0.104 -0.159 19.4 V 0.70 -0.11 a 691 0.28 Yes Yes
2000BO19 O C t 2000-02-02.25118 1.000E-05 08:58:10.850 1.500E-01 0.600 F 0.355 2.039 -06° 51' 14.80" 1.000E-01 0.600 F 0.099 1.627 18.8 V 0.70 0.39 b 691 3.29 No Yes
2000BO28 O C H 2000-02-02.33358 1.000E-05 09:40:23.930 1.500E-01 0.600 F 0.352 1.552 +14° 54' 58.30" 1.000E-01 0.600 F -0.014 0.502 21.8 V 0.70 1.10 b 691 2.74 Yes Yes
2000BO28 O C H 2000-02-02.33938 1.000E-05 09:40:23.160 1.500E-01 0.600 F 0.352 0.787 +14° 54' 59.70" 1.000E-01 0.600 F -0.014 0.351 22.0 V 0.70 1.30 b 691 1.45 Yes Yes
2000BO28 O C H 2000-02-02.34513 1.000E-05 09:40:22.440 1.500E-01 0.600 F 0.352 0.661 +14° 54' 59.80" 1.000E-01 0.600 F -0.014 -1.083 22.4 V 0.70 1.70 b 691 2.14 Yes Yes
2000BO19 O C t 2000-02-02.42017 1.000E-05 08:55:11.770 1.500E-01 0.600 F -0.160 -0.126 -08° 39' 40.90" 1.000E-01 0.600 F -0.662 3.899 18.5 V 0.70 0.08 b 691 5.00 No Yes
2000BO19 O C t 2000-02-03.29590 1.000E-05 08:38:39.460 1.500E-01 0.600 F -0.397 0.333 -19° 08' 09.70" 1.000E-01 0.600 F 0.029 0.039 18.2 V 0.70 -0.32 b 691 1.22 Yes Yes
2000BO28 O C 2000-02-04.37070 1.000E-05 09:36:12.260 1.500E-01 0.600 F 0.421 -0.002 +15° 04' 13.10" 1.000E-01 0.600 F 0.493 -0.092 20.2 V 0.70 -0.32 b 691 0.15 Yes Yes
2000BO28 O C 2000-02-04.37644 1.000E-05 09:36:11.490 1.500E-01 0.600 F 0.421 -0.152 +15° 04' 14.40" 1.000E-01 0.600 F 0.493 -0.366 20.2 V 0.70 -0.32 b 691 0.66 Yes Yes
2000BO28 O C 2000-02-04.38251 1.000E-05 09:36:10.700 1.500E-01 0.600 F 0.421 0.040 +15° 04' 16.80" 1.000E-01 0.600 F 0.493 0.374 20.2 V 0.70 -0.32 b 691 0.63 Yes Yes
2000BF19 O C 2000-02-05.23654 1.000E-05 08:22:40.830 1.500E-01 0.600 F 0.072 -0.136 +20° 24' 22.00" 1.000E-01 0.600 F -0.534 0.058 20.8 V 0.70 0.07 b 691 0.25 Yes Yes
2000BF19 O C 2000-02-05.24280 1.000E-05 08:22:40.040 1.500E-01 0.600 F 0.072 -0.394 +20° 24' 22.30" 1.000E-01 0.600 F -0.534 -0.427 20.4 V 0.70 -0.33 b 691 0.97 Yes Yes
2000BF19 O C 2000-02-05.24931 1.000E-05 08:22:39.240 1.500E-01 0.600 F 0.072 -0.357 +20° 24' 23.30" 1.000E-01 0.600 F -0.534 -0.237 20.6 V 0.70 -0.13 b 691 0.72 Yes Yes
2000BG19 O C 2000-02-05.46551 1.000E-05 11:07:22.950 1.500E-01 0.600 F 0.068 -0.084 +05° 55' 21.40" 1.000E-01 0.600 F 0.166 -0.124 18.7 V 0.70 -0.58 b 691 0.25 Yes Yes
2000BG19 O C 2000-02-05.46999 1.000E-05 11:07:23.030 1.500E-01 0.600 F 0.068 -0.207 +05° 55' 24.80" 1.000E-01 0.600 F 0.166 -0.294 18.7 V 0.70 -0.58 b 691 0.60 Yes Yes
2000BG19 O C 2000-02-05.47389 1.000E-05 11:07:23.110 1.500E-01 0.600 F 0.068 -0.163 +05° 55' 27.90" 1.000E-01 0.600 F 0.166 -0.302 18.6 V 0.70 -0.68 b 691 0.57 Yes Yes
2000BO28 O C 2000-02-06.40892 1.000E-05 09:31:43.080 1.500E-01 0.600 F 0.421 -0.707 +15° 13' 48.90" 1.000E-01 0.600 F 0.493 -0.159 20.4 V 0.70 0.08 b 691 1.22 Yes Yes
2000BO28 O C 2000-02-06.41330 1.000E-05 09:31:42.460 1.500E-01 0.600 F 0.421 -0.780 +15° 13' 49.70" 1.000E-01 0.600 F 0.493 -0.575 20.4 V 0.70 0.08 b 691 1.63 Yes Yes
2000BO28 O C 2000-02-06.41854 1.000E-05 09:31:41.730 1.500E-01 0.600 F 0.421 -0.701 +15° 13' 51.50" 1.000E-01 0.600 F 0.493 -0.227 20.7 V 0.70 0.38 b 691 1.24 Yes Yes
2000AG205 O C H 2000-02-08.13343 1.000E-05 03:54:03.000 1.500E-01 0.600 F 0.071 0.482 +06° 56' 47.40" 1.000E-01 0.600 F 0.176 -0.234 22.0 V 0.70 1.08 b 691 0.90 Yes Yes
2000AG205 O C H 2000-02-08.13744 1.000E-05 03:54:03.270 1.500E-01 0.600 F 0.071 -0.511 +06° 56' 43.70" 1.000E-01 0.600 F 0.176 1.141 21.2 V 0.70 0.28 b 691 2.16 Yes Yes
2000AG205 O C H 2000-02-08.14182 1.000E-05 03:54:03.740 1.500E-01 0.600 F 0.071 1.008 +06° 56' 37.70" 1.000E-01 0.600 F 0.176 0.686 21.5 V 0.70 0.58 b 691 2.07 Yes Yes
2000BO28 O C 2000-02-08.38849 1.000E-05 09:27:05.800 1.500E-01 0.600 F -0.246 -0.117 +15° 23' 21.30" 1.000E-01 0.600 F 0.417 -0.503 20.0 V 0.70 -0.07 b 691 0.87 Yes Yes
2000BO28 O C 2000-02-08.39267 1.000E-05 09:27:05.190 1.500E-01 0.600 F -0.246 0.041 +15° 23' 22.40" 1.000E-01 0.600 F 0.417 -0.587 19.9 V 0.70 -0.17 b 691 0.99 Yes Yes
2000BO28 O C 2000-02-08.39681 1.000E-05 09:27:04.560 1.500E-01 0.600 F -0.246 -0.178 +15° 23' 24.20" 1.000E-01 0.600 F 0.417 0.042 19.9 V 0.70 -0.17 b 691 0.31 Yes Yes
2000BF19 O C H 2000-02-10.17264 1.000E-05 08:13:00.100 1.500E-01 0.600 F 0.312 -1.159 +20° 32' 26.50" 1.000E-01 0.600 F 0.307 0.777 21.6 V 0.70 0.73 b 691 2.34 Yes Yes
2000BF19 O C H 2000-02-10.17721 1.000E-05 08:12:59.670 1.500E-01 0.600 F 0.312 0.361 +20° 32' 28.70" 1.000E-01 0.600 F 0.307 2.593 21.6 V 0.70 0.73 b 691 4.34 No Yes
2000BF19 O C H 2000-02-10.18150 1.000E-05 08:12:59.160 1.500E-01 0.600 F 0.312 0.296 +20° 32' 26.90" 1.000E-01 0.600 F 0.307 0.435 21.4 V 0.70 0.53 b 691 0.88 Yes Yes
2000BO28 O C 2000-02-10.25608 1.000E-05 09:22:30.880 1.500E-01 0.600 F -0.007 -0.250 +15° 32' 26.50" 1.000E-01 0.600 F -0.200 -0.277 19.9 V 0.70 -0.24 b 691 0.63 Yes Yes
2000BO28 O C 2000-02-10.26023 1.000E-05 09:22:30.240 1.500E-01 0.600 F -0.007 -0.151 +15° 32' 27.70" 1.000E-01 0.600 F -0.200 -0.318 19.8 V 0.70 -0.34 b 691 0.59 Yes Yes
2000BO28 O C 2000-02-10.26417 1.000E-05 09:22:29.630 1.500E-01 0.600 F -0.007 -0.088 +15° 32' 29.20" 1.000E-01 0.600 F -0.200 0.006 19.7 V 0.70 -0.44 b 691 0.15 Yes Yes
2000CR101 O C 2000-02-11.46823 1.000E-05 11:11:19.180 1.500E-01 0.600 F -0.080 0.451 +05° 28' 09.70" 1.000E-01 0.600 F 0.176 -0.131 18.9 V 0.70 -0.38 b 691 0.79 Yes Yes
2000CR101 O C 2000-02-11.49580 1.000E-05 11:11:18.590 1.500E-01 0.600 F -0.080 0.388 +05° 28' 08.40" 1.000E-01 0.600 F 0.176 -0.410 18.9 V 0.70 -0.38 b 691 0.95 Yes Yes
2000CR101 O C 2000-02-11.52321 1.000E-05 11:11:18.040 1.500E-01 0.600 F -0.080 0.472 +05° 28' 07.40" 1.000E-01 0.600 F 0.176 -0.357 18.9 V 0.70 -0.38 b 691 1.00 Yes Yes
2000BF19 O C 2000-02-12.16814 1.000E-05 08:09:14.210 1.500E-01 0.600 F 0.146 -0.761 +20° 34' 35.90" 1.000E-01 0.600 F 0.213 0.471 21.0 V 0.70 0.08 b 691 1.50 Yes Yes
2000BF19 O C 2000-02-12.17294 1.000E-05 08:09:13.690 1.500E-01 0.600 F 0.146 -0.340 +20° 34' 36.20" 1.000E-01 0.600 F 0.213 0.462 20.4 V 0.70 -0.52 b 691 0.96 Yes Yes
2000BF19 O C 2000-02-12.17774 1.000E-05 08:09:13.160 1.500E-01 0.600 F 0.146 -0.057 +20° 34' 36.30" 1.000E-01 0.600 F 0.213 0.256 20.3 V 0.70 -0.62 b 691 0.44 Yes Yes
2000CR101 O C 2000-02-12.39774 1.000E-05 11:11:06.090 1.500E-01 0.600 F -0.080 -0.073 +05° 27' 49.60" 1.000E-01 0.600 F 0.176 -0.034 18.9 V 0.70 -0.35 b 691 0.14 Yes Yes
2000CR101 O C 2000-02-12.42456 1.000E-05 11:11:05.420 1.500E-01 0.600 F -0.080 0.066 +05° 27' 49.00" 1.000E-01 0.600 F 0.176 -0.183 18.7 V 0.70 -0.55 b 691 0.33 Yes Yes
2000CR101 O C 2000-02-12.45216 1.000E-05 11:11:04.730 1.500E-01 0.600 F -0.080 0.054 +05° 27' 48.40" 1.000E-01 0.600 F 0.176 -0.269 19.5 V 0.70 0.25 b 691 0.46 Yes Yes
2000BO28 O C 2000-02-14.32805 1.000E-05 09:11:47.010 1.500E-01 0.600 F -0.213 0.163 +15° 52' 00.80" 1.000E-01 0.600 F -0.109 -0.164 19.7 V 0.70 -0.54 b 691 0.39 Yes Yes
2000BO28 O C 2000-02-14.33470 1.000E-05 09:11:45.880 1.500E-01 0.600 F -0.213 0.155 +15° 52' 02.90" 1.000E-01 0.600 F -0.109 0.098 19.3 V 0.70 -0.94 b 691 0.31 Yes Yes
2000BO28 O C 2000-02-14.34104 1.000E-05 09:11:44.810 1.500E-01 0.600 F -0.213 0.249 +15° 52' 04.40" 1.000E-01 0.600 F -0.109 -0.149 20.0 V 0.70 -0.24 b 691 0.49 Yes Yes
2000CR101 O C 2000-02-26.34183 1.000E-05 11:04:00.790 1.500E-01 0.600 F 0.271 -0.056 +05° 45' 05.30" 1.000E-01 0.600 F -0.136 -0.087 18.4 V 0.70 -0.42 b 691 0.17 Yes Yes
2000CR101 O C 2000-02-26.34840 1.000E-05 11:04:00.450 1.500E-01 0.600 F 0.271 -0.203 +05° 45' 06.10" 1.000E-01 0.600 F -0.136 -0.199 18.5 V 0.70 -0.32 b 691 0.48 Yes Yes
2000CR101 O C 2000-02-26.35333 1.000E-05 11:04:00.210 1.500E-01 0.600 F 0.271 -0.088 +05° 45' 06.90" 1.000E-01 0.600 F -0.136 -0.081 18.4 V 0.70 -0.42 b 691 0.20 Yes Yes
2000BG19 O C 2000-02-26.35826 1.000E-05 11:10:53.160 1.500E-01 0.600 F 0.529 0.180 +13° 01' 47.00" 1.000E-01 0.600 F -0.415 0.099 17.4 V 0.70 -0.59 b 691 0.35 Yes Yes
2000BG19 O C 2000-02-26.36330 1.000E-05 11:10:53.120 1.500E-01 0.600 F 0.529 0.215 +13° 01' 55.30" 1.000E-01 0.600 F -0.415 0.042 17.4 V 0.70 -0.59 b 691 0.37 Yes Yes
2000BG19 O C 2000-02-26.36761 1.000E-05 11:10:53.080 1.500E-01 0.600 F 0.529 0.158 +13° 02' 02.50" 1.000E-01 0.600 F -0.415 0.097 17.4 V 0.70 -0.59 b 691 0.31 Yes Yes
2007VZ30 O C 2000-02-27.23880 1.000E-05 09:54:37.910 1.500E-01 0.600 F 0.190 0.130 +14° 13' 22.00" 1.000E-01 0.600 F 0.025 -0.001 20.5 V 0.70 -0.47 b 691 0.23 Yes Yes
2007VZ30 O C 2000-02-27.26047 1.000E-05 09:54:36.320 1.500E-01 0.600 F 0.190 0.242 +14° 13' 22.60" 1.000E-01 0.600 F 0.025 -0.067 20.5 V 0.70 -0.47 b 691 0.46 Yes Yes
2007VZ30 O C 2000-02-27.28378 1.000E-05 09:54:34.620 1.500E-01 0.600 F 0.190 0.553 +14° 13' 23.40" 1.000E-01 0.600 F 0.025 0.103 20.9 V 0.70 -0.07 b 691 1.00 Yes Yes
2000DM1 O C 2000-03-03.40686 1.000E-05 11:04:03.020 1.500E-01 0.600 F 0.271 0.159 +04° 52' 02.20" 1.000E-01 0.600 F -0.136 -0.154 17.1 V 0.70 -0.49 b 691 0.37 Yes Yes
2000DM1 O C 2000-03-03.42823 1.000E-05 11:03:58.410 1.500E-01 0.600 F 0.271 -0.028 +04° 51' 45.70" 1.000E-01 0.600 F -0.136 -0.073 17.1 V 0.70 -0.48 b 691 0.13 Yes Yes
2000DM1 O C 2000-03-03.44931 1.000E-05 11:03:53.890 1.500E-01 0.600 F 0.271 0.067 +04° 51' 29.30" 1.000E-01 0.600 F -0.136 -0.088 17.1 V 0.70 -0.48 b 691 0.19 Yes Yes
2000BF19 O C 2000-03-04.16672 1.000E-05 07:39:30.860 1.500E-01 0.600 F -0.061 0.467 +20° 21' 36.90" 1.000E-01 0.600 F 0.251 -0.838 21.9 V 0.70 0.48 b 691 1.60 Yes Yes
2000BF19 O C 2000-03-04.17608 1.000E-05 07:39:30.330 1.500E-01 0.600 F -0.061 0.405 +20° 21' 36.00" 1.000E-01 0.600 F 0.251 -0.668 21.4 V 0.70 -0.02 b 691 1.31 Yes Yes
2000BF19 O C 2000-03-04.18480 1.000E-05 07:39:29.810 1.500E-01 0.600 F -0.061 -0.026 +20° 21' 35.10" 1.000E-01 0.600 F 0.251 -0.563 21.5 V 0.70 0.08 b 691 0.94 Yes Yes
2001KP41 O C 2000-03-04.21213 1.000E-05 09:56:12.860 1.500E-01 0.600 F 0.291 -0.315 +13° 42' 09.10" 1.000E-01 0.600 F -0.571 1.166 21.2 V 0.70 0.28 b 691 2.02 Yes Yes
2001KP41 O C 2000-03-04.23934 1.000E-05 09:56:11.570 1.500E-01 0.600 F 0.291 0.211 +13° 42' 18.10" 1.000E-01 0.600 F -0.571 0.932 21.8 V 0.70 0.88 b 691 1.59 Yes Yes
2001KP41 O C 2000-03-04.26505 1.000E-05 09:56:10.310 1.500E-01 0.600 F 0.291 0.120 +13° 42' 26.30" 1.000E-01 0.600 F -0.571 0.424 21.2 V 0.70 0.28 b 691 0.74 Yes Yes
2000CR101 O C 2000-03-04.31665 1.000E-05 10:59:08.220 1.500E-01 0.735 F 0.086 0.048 +06° 02' 36.20" 1.000E-01 0.735 F -0.240 -0.110 18.3 V 0.70 -0.23 a 691 0.16 Yes Yes
2000CR101 O C H 2000-03-04.31665 1.000E-05 10:59:08.210 1.500E-01 0.735 F 0.060 -0.075 +06° 02' 37.10" 1.000E-01 0.735 F -0.237 0.787 19.1 V 0.70 0.57 b 691 1.08 Yes Yes
2000CR101 O C 2000-03-04.32897 1.000E-05 10:59:07.590 1.500E-01 0.735 F 0.086 0.020 +06° 02' 38.20" 1.000E-01 0.735 F -0.240 -0.003 18.2 V 0.70 -0.33 a 691 0.03 Yes Yes
2000CR101 O C H 2000-03-04.32897 1.000E-05 10:59:07.570 1.500E-01 0.735 F 0.060 -0.252 +06° 02' 39.00" 1.000E-01 0.735 F -0.237 0.794 19.2 V 0.70 0.67 b 691 1.14 Yes Yes
2000CR101 O C H 2000-03-04.34103 1.000E-05 10:59:07.000 1.500E-01 0.735 F 0.060 0.406 +06° 02' 40.00" 1.000E-01 0.735 F -0.237 -0.046 19.4 V 0.70 0.87 b 691 0.56 Yes Yes
2000CR101 O C 2000-03-04.34103 1.000E-05 10:59:06.990 1.500E-01 0.735 F 0.086 0.231 +06° 02' 40.00" 1.000E-01 0.735 F -0.240 -0.043 18.3 V 0.70 -0.23 a 691 0.32 Yes Yes
2000DM1 O C 2000-03-04.41132 1.000E-05 11:00:29.280 1.500E-01 0.600 F 0.182 -0.067 +04° 38' 55.30" 1.000E-01 0.600 F -0.106 -0.256 17.0 V 0.70 -0.50 b 691 0.44 Yes Yes
2000DM1 O C 2000-03-04.41978 1.000E-05 11:00:27.410 1.500E-01 0.600 F 0.182 -0.006 +04° 38' 48.60" 1.000E-01 0.600 F -0.106 -0.182 17.1 V 0.70 -0.40 b 691 0.30 Yes Yes
2000DM1 O C 2000-03-04.42788 1.000E-05 11:00:25.610 1.500E-01 0.600 F 0.182 -0.110 +04° 38' 42.00" 1.000E-01 0.600 F -0.106 -0.291 17.1 V 0.70 -0.40 b 691 0.52 Yes Yes
2000BG19 O C H 2000-03-04.51395 1.000E-05 11:10:13.190 1.500E-01 0.600 F -0.051 0.035 +16° 35' 33.60" 1.000E-01 0.600 F -0.186 0.954 b 691 1.60 Yes No
2000BG19 O C H 2000-03-04.52136 1.000E-05 11:10:13.140 1.500E-01 0.600 F -0.051 0.402 +16° 35' 48.30" 1.000E-01 0.600 F -0.186 1.667 18.9 V 0.70 1.14 b 691 2.88 Yes Yes
2000CR101 O C 2000-03-08.27105 1.000E-05 10:56:29.030 1.500E-01 0.600 F 0.243 -0.571 +06° 12' 26.70" 1.000E-01 0.600 F -0.250 -0.116 18.7 V 0.70 -0.16 b 691 0.98 Yes Yes
2000CR101 O C 2000-03-08.27769 1.000E-05 10:56:28.710 1.500E-01 0.600 F 0.243 -0.651 +06° 12' 27.70" 1.000E-01 0.600 F -0.250 -0.077 18.7 V 0.70 -0.16 b 691 1.11 Yes Yes
2000CR101 O C 2000-03-08.28334 1.000E-05 10:56:28.450 1.500E-01 0.600 F 0.243 -0.532 +06° 12' 28.40" 1.000E-01 0.600 F -0.250 -0.192 19.0 V 0.70 0.14 b 691 0.95 Yes Yes
2001KP41 O C 2000-03-12.25002 1.000E-05 09:50:06.020 1.500E-01 0.600 F 0.334 0.390 +14° 25' 21.00" 1.000E-01 0.600 F -0.018 -0.260 21.0 V 0.70 -0.04 b 691 0.78 Yes Yes
2001KP41 O C 2000-03-12.27670 1.000E-05 09:50:04.830 1.500E-01 0.600 F 0.334 0.281 +14° 25' 29.40" 1.000E-01 0.600 F -0.018 0.020 21.1 V 0.70 0.06 b 691 0.47 Yes Yes
2001KP41 O C 2000-03-12.30313 1.000E-05 09:50:03.660 1.500E-01 0.600 F 0.334 0.281 +14° 25' 37.20" 1.000E-01 0.600 F -0.018 -0.203 21.3 V 0.70 0.26 b 691 0.58 Yes Yes
2000EM26 O C 2000-03-14.23239 1.000E-05 09:01:12.330 1.500E-01 0.600 F -0.004 -0.070 +15° 39' 35.10" 1.000E-01 0.600 F 0.216 -0.931 20.7 V 0.70 0.43 b 691 1.57 Yes Yes
2000EM26 O C 2000-03-14.25922 1.000E-05 09:01:08.800 1.500E-01 0.600 F -0.004 1.168 +15° 39' 25.70" 1.000E-01 0.600 F 0.216 -0.873 19.8 V 0.70 -0.47 b 691 2.48 Yes Yes
2000EM26 O C 2000-03-14.29123 1.000E-05 09:01:04.440 1.500E-01 0.600 F -0.004 -0.250 +15° 39' 14.40" 1.000E-01 0.600 F 0.216 -0.484 20.5 V 0.70 0.22 b 691 0.91 Yes Yes
Didymos O C 2000-03-15.32627 1.000E-05 11:12:47.220 1.500E-01 0.600 F 0.049 0.261 +12° 27' 54.20" 1.000E-01 0.600 F -0.059 -0.404 20.2 V 0.70 0.26 b 691 0.80 Yes Yes
Didymos O C 2000-03-15.33114 1.000E-05 11:12:46.770 1.500E-01 0.600 F 0.049 0.114 +12° 27' 56.40" 1.000E-01 0.600 F -0.059 -0.250 20.0 V 0.70 0.06 b 691 0.46 Yes Yes
Didymos O C 2000-03-15.33506 1.000E-05 11:12:46.400 1.500E-01 0.600 F 0.049 -0.120 +12° 27' 58.20" 1.000E-01 0.600 F -0.059 -0.096 20.1 V 0.70 0.16 b 691 0.26 Yes Yes
1999SK10 O C 2000-03-15.40653 1.000E-05 13:01:36.650 1.500E-01 0.600 F -0.282 -0.056 -16° 17' 01.10" 1.000E-01 0.600 F -0.042 -0.034 19.1 V 0.70 0.52 b 691 0.12 Yes Yes
1999SK10 O C 2000-03-15.41073 1.000E-05 13:01:36.310 1.500E-01 0.600 F -0.282 -0.226 -16° 16' 52.20" 1.000E-01 0.600 F -0.042 0.110 19.1 V 0.70 0.52 b 691 0.43 Yes Yes
1999SK10 O C 2000-03-15.41460 1.000E-05 13:01:36.030 1.500E-01 0.600 F -0.282 0.092 -16° 16' 44.30" 1.000E-01 0.600 F -0.042 -0.063 18.9 V 0.70 0.32 b 691 0.18 Yes Yes
2000FJ10 O C 2000-03-25.37275 1.000E-05 13:05:39.400 1.500E-01 0.600 F -0.529 0.016 -07° 18' 33.90" 1.000E-01 0.600 F 0.110 0.120 21.6 V 0.70 1.08 b 691 0.20 Yes Yes
2000FJ10 O C 2000-03-25.39390 1.000E-05 13:05:37.090 1.500E-01 0.600 F -0.529 -0.328 -07° 18' 08.20" 1.000E-01 0.600 F 0.110 0.188 21.6 V 0.70 1.08 b 691 0.64 Yes Yes
2000FJ10 O C 2000-03-25.41534 1.000E-05 13:05:34.790 1.500E-01 0.600 F -0.529 -0.137 -07° 17' 42.80" 1.000E-01 0.600 F 0.110 -0.434 21.3 V 0.70 0.78 b 691 0.76 Yes Yes
2000BO28 O C 2000-03-26.11971 1.000E-05 07:22:58.580 1.500E-01 0.600 F -0.215 -0.468 +15° 56' 27.00" 1.000E-01 0.600 F -0.027 -0.091 21.5 V 0.70 0.82 b 691 0.80 Yes Yes
2000BO28 O C 2000-03-26.13487 1.000E-05 07:22:56.900 1.500E-01 0.600 F -0.215 -0.214 +15° 56' 22.50" 1.000E-01 0.600 F -0.027 -0.153 21.2 V 0.70 0.52 b 691 0.44 Yes Yes
2000FJ10 O C H 2000-03-26.35319 1.000E-05 13:03:59.710 1.500E-01 0.600 F -0.529 0.692 -06° 58' 46.90" 1.000E-01 0.600 F 0.110 -0.645 21.5 V 0.70 1.01 b 691 1.59 Yes Yes
2000FJ10 O C H 2000-03-26.35735 1.000E-05 13:03:59.270 1.500E-01 0.600 F -0.529 0.889 -06° 58' 40.00" 1.000E-01 0.600 F 0.110 1.202 21.5 V 0.70 1.02 b 691 2.50 Yes Yes
2000FJ10 O C H 2000-03-26.36135 1.000E-05 13:03:58.850 1.500E-01 0.600 F -0.529 1.123 -06° 58' 36.80" 1.000E-01 0.600 F 0.110 -0.458 20.6 V 0.70 0.12 b 691 2.04 Yes Yes
1998HL49 O C t 2000-03-27.12903 1.000E-05 03:50:10.060 1.500E-01 0.735 F 0.105 1.456 +08° 37' 31.00" 1.000E-01 0.735 F -0.228 2.353 b 691 3.76 No No
1998HL49 O C 2000-03-27.12903 1.000E-05 03:50:10.030 1.500E-01 0.735 F 0.119 0.997 +08° 37' 29.00" 1.000E-01 0.735 F -0.204 0.329 19.7 V 0.70 0.64 a 691 1.43 Yes Yes

[1-200] [201-400] [401-600] [601-800] [801-1000] [1001-1200] [1201-1400] [1401-1600] [1601-1800] [1801-2000] [2001-2200] [2201-2400] [2401-2600] [2601-2800] [2801-3000] [3001-3200] [3201-3400] [3401-3600] [3601-3800] [3801-4000] [4001-4200] [4201-4400] [4401-4600] [4601-4800] [4801-5000] [5001-5200] [5201-5400] [5401-5600] [5601-5800] [5801-6000] [6001-6200] [6201-6400] [6401-6600] [6601-6800] [6801-7000] [7001-7200] [7201-7400] [7401-7600] [7601-7800] [7801-8000] [8001-8200] [8201-8400] [8401-8600] [8601-8800] [8801-9000] [9001-9200] [9201-9400] [9401-9600] [9601-9800] [9801-10000] [10001-10200] [10201-10400] [10401-10600] [10601-10800] [10801-11000] [11001-11200] [11201-11400] [11401-11600] [11601-11800] [11801-12000] [12001-12200] [12201-12400] [12401-12600] [12601-12800] [12801-13000] [13001-13200] [13201-13400] [13401-13600] [13601-13800] [13801-14000] [14001-14200] [14201-14400] [14401-14600] [14601-14800] [14801-15000] [15001-15200] [15201-15400] [15401-15600] [15601-15800] [15801-16000] [16001-16200] [16201-16400] [16401-16600] [16601-16800] [16801-17000] [17001-17200] [17201-17400] [17401-17600] [17601-17800] [17801-18000] [18001-18200] [18201-18400] [18401-18600] [18601-18800] [18801-19000] [19001-19200] [19201-19400] [19401-19600] [19601-19800] [19801-20000] [20001-20200] [20201-20400] [20401-20600] [20601-20800] [20801-21000] [21001-21200] [21201-21400] [21401-21600] [21601-21800] [21801-22000] [22001-22200] [22201-22400] [22401-22600] [22601-22800] [22801-23000] [23001-23200] [23201-23400] [23401-23600] [23601-23800] [23801-24000] [24001-24200] [24201-24400] [24401-24600] [24601-24800] [24801-25000] [25001-25200] [25201-25400] [25401-25600] [25601-25800] [25801-26000] [26001-26200] [26201-26400] [26401-26600] [26601-26800] [26801-27000] [27001-27200] [27201-27400] [27401-27600] [27601-27800] [27801-28000] [28001-28200] [28201-28400] [28401-28600] [28601-28800] [28801-29000] [29001-29200] [29201-29400] [29401-29600] [29601-29800] [29801-30000] [30001-30200] [30201-30400] [30401-30600] [30601-30800] [30801-31000] [31001-31200] [31201-31400] [31401-31600] [31601-31800] [31801-32000] [32001-32200] [32201-32400] [32401-32600] [32601-32800] [32801-33000] [33001-33200] [33201-33400] [33401-33600] [33601-33800] [33801-34000] [34001-34200] [34201-34400] [34401-34600] [34601-34800] [34801-35000] [35001-35200] [35201-35400] [35401-35600] [35601-35800] [35801-36000] [36001-36200] [36201-36400] [36401-36600] [36601-36800] [36801-37000] [37001-37200] [37201-37400] [37401-37600] [37601-37800] [37801-38000] [38001-38200] [38201-38400] [38401-38600] [38601-38800] [38801-39000] [39001-39200] [39201-39400] [39401-39600] [39601-39800] [39801-40000] [40001-40200] [40201-40400] [40401-40600] [40601-40800] [40801-41000] [41001-41200] [41201-41400] [41401-41600] [41601-41800] [41801-42000] [42001-42200] [42201-42400] [42401-42600] [42601-42800] [42801-43000] [43001-43200] [43201-43400] [43401-43600] [43601-43800] [43801-44000] [44001-44200] [44201-44400] [44401-44600] [44601-44800] [44801-45000] [45001-45200] [45201-45400] [45401-45600] [45601-45800] [45801-46000] [46001-46200] [46201-46400] [46401-46600] [46601-46800] [46801-47000] [47001-47200] [47201-47400] [47401-47600] [47601-47800] [47801-48000] [48001-48200] [48201-48400] [48401-48600] [48601-48800] [48801-49000] [49001-49200] [49201-49400] [49401-49600] [49601-49800] [49801-50000] [50001-50200] [50201-50388]